Time;durP1;ratioP1;P1;durP2;ratioP2;P2;SDS_P1;SDS_P2;PMS_P1;PMS_P2;Temp;Humidity;BMP_temperature;BMP_pressure;BME280_temperature;BME280_humidity;BME280_pressure;Samples;Min_cycle;Max_cycle;Signal;HPM_P1;HPM_P2
2023/07/29 00:02:15;;;;;;;0.70;0.70;;;;;;;25.29;56.12;97108.50;5071300;28;20201;-27
2023/07/29 00:04:42;;;;;;;0.60;0.60;;;;;;;25.29;56.18;97117.09;5072080;28;20250;-27
2023/07/29 00:07:08;;;;;;;0.60;0.60;;;;;;;25.30;56.28;97121.38;5071797;28;20675;-28
2023/07/29 00:09:35;;;;;;;0.60;0.60;;;;;;;25.30;56.31;97115.38;5072017;28;20196;-27
2023/07/29 00:12:01;;;;;;;0.60;0.60;;;;;;;25.30;56.08;97120.50;5071635;28;20270;-27
2023/07/29 00:14:28;;;;;;;0.60;0.60;;;;;;;25.24;56.36;97105.91;5071586;28;20566;-27
2023/07/29 00:16:54;;;;;;;0.67;0.67;;;;;;;25.29;56.41;97111.97;5071767;28;20208;-27
2023/07/29 00:19:23;;;;;;;0.60;0.60;;;;;;;25.29;56.42;97111.97;5071575;28;20269;-27
2023/07/29 00:21:50;;;;;;;0.60;0.60;;;;;;;25.29;56.58;97114.53;5071926;28;20381;-27
2023/07/29 00:24:16;;;;;;;0.60;0.60;;;;;;;25.29;56.27;97113.66;5071659;28;20247;-27
2023/07/29 00:26:43;;;;;;;0.80;0.80;;;;;;;25.29;56.12;97111.97;5071778;28;20204;-27
2023/07/29 00:29:09;;;;;;;0.70;0.70;;;;;;;25.29;56.37;97113.66;5071244;28;20220;-28
2023/07/29 00:31:36;;;;;;;0.60;0.60;;;;;;;25.27;56.51;97105.94;5071367;28;20303;-27
2023/07/29 00:34:02;;;;;;;0.70;0.70;;;;;;;25.27;56.60;97113.66;5069707;28;20671;-27
2023/07/29 00:36:29;;;;;;;0.60;0.60;;;;;;;25.28;56.60;97106.81;5071417;28;20246;-28
2023/07/29 00:38:57;;;;;;;0.60;0.60;;;;;;;25.28;56.19;97112.78;5071266;28;20313;-28
2023/07/29 00:41:23;;;;;;;0.63;0.63;;;;;;;25.27;56.19;97105.94;5071115;28;20202;-27
2023/07/29 00:43:50;;;;;;;0.60;0.60;;;;;;;25.26;56.13;97109.34;5068005;28;20904;-27
2023/07/29 00:46:16;;;;;;;0.70;0.70;;;;;;;25.26;56.62;97105.91;5071233;28;20291;-27
2023/07/29 00:48:43;;;;;;;0.60;0.60;;;;;;;25.22;56.71;97094.72;5070226;28;20647;-27
2023/07/29 00:51:10;;;;;;;0.63;0.63;;;;;;;25.26;56.28;97106.78;5071276;28;20219;-27
2023/07/29 00:53:37;;;;;;;0.60;0.60;;;;;;;25.27;56.31;97100.78;5071583;28;20230;-27
2023/07/29 00:56:03;;;;;;;0.63;0.63;;;;;;;25.24;56.61;97092.16;5071233;28;20208;-27
2023/07/29 00:58:30;;;;;;;0.60;0.60;;;;;;;25.26;56.40;97088.78;5069729;28;20236;-27
2023/07/29 01:00:57;;;;;;;0.70;0.70;;;;;;;25.20;56.37;97082.72;5045637;28;20623;-27
2023/07/29 01:03:23;;;;;;;0.67;0.67;;;;;;;25.26;56.54;97086.22;5084472;28;20273;-30
2023/07/29 01:05:53;;;;;;;0.50;0.50;;;;;;;25.27;56.61;97087.06;5069398;28;20651;-27
2023/07/29 01:08:58;;;;;;;0.67;0.67;;;;;;;25.21;56.14;97076.72;5070625;28;20224;-34
2023/07/29 01:11:31;;;;;;;0.60;0.60;;;;;;;25.25;56.47;97087.03;5062735;28;20651;-27
2023/07/29 01:14:10;;;;;;;0.60;0.60;;;;;;;25.26;56.52;97086.22;5070182;28;20634;-27
2023/07/29 01:16:46;;;;;;;0.60;0.60;;;;;;;25.26;56.54;97082.75;5052105;28;20211;-27
2023/07/29 01:19:49;;;;;;;0.70;0.70;;;;;;;25.26;56.37;97080.19;5069882;28;20310;-27
2023/07/29 01:22:16;;;;;;;0.60;0.60;;;;;;;25.27;56.52;97090.50;5061900;28;20596;-27
2023/07/29 01:24:42;;;;;;;0.70;0.70;;;;;;;25.26;56.68;97093.94;5056213;28;20291;-27
2023/07/29 01:27:09;;;;;;;0.70;0.70;;;;;;;25.27;56.75;97090.50;5074997;28;20196;-27
2023/07/29 01:29:35;;;;;;;0.60;0.60;;;;;;;25.27;56.24;97090.50;5075192;28;20298;-27
2023/07/29 01:32:06;;;;;;;0.70;0.70;;;;;;;25.22;56.60;97081.88;5073839;28;20244;-27
2023/07/29 01:34:38;;;;;;;0.70;0.70;;;;;;;25.26;56.25;97085.34;5057601;28;20239;-27
2023/07/29 01:37:05;;;;;;;0.70;0.70;;;;;;;25.26;56.30;97078.50;5057622;28;20253;-27
2023/07/29 01:39:32;;;;;;;0.70;0.70;;;;;;;25.26;56.28;97086.22;5056985;28;20319;-27
2023/07/29 01:41:59;;;;;;;0.70;0.70;;;;;;;25.26;56.29;97081.06;5074524;28;20674;-27
2023/07/29 01:44:25;;;;;;;0.80;0.80;;;;;;;25.24;56.15;97072.47;5073424;28;20324;-27
2023/07/29 01:46:52;;;;;;;0.63;0.63;;;;;;;25.24;56.73;97074.16;5073642;28;20659;-27
2023/07/29 01:49:19;;;;;;;0.70;0.70;;;;;;;25.27;56.75;97085.34;5074522;28;20227;-27
2023/07/29 01:51:45;;;;;;;0.60;0.60;;;;;;;25.28;56.53;97078.50;5074358;28;20694;-27
2023/07/29 01:54:12;;;;;;;0.60;0.60;;;;;;;25.26;56.30;97075.91;5074545;28;20232;-27
2023/07/29 01:56:38;;;;;;;0.70;0.70;;;;;;;25.26;56.32;97067.34;5074502;28;20232;-27
2023/07/29 01:59:05;;;;;;;0.70;0.70;;;;;;;25.27;56.30;97077.63;5074363;28;20262;-27
2023/07/29 02:01:31;;;;;;;0.60;0.60;;;;;;;25.21;56.19;97064.72;5074527;28;20265;-27
2023/07/29 02:03:58;;;;;;;0.63;0.63;;;;;;;25.24;56.65;97069.03;5074419;28;20228;-27
2023/07/29 02:06:26;;;;;;;0.60;0.60;;;;;;;25.25;56.57;97065.63;5074028;28;20205;-27
2023/07/29 02:08:53;;;;;;;0.70;0.70;;;;;;;25.24;56.45;97067.31;5074319;28;20242;-27
2023/07/29 02:11:27;;;;;;;0.60;0.60;;;;;;;25.24;56.50;97064.75;5073889;28;20263;-27
2023/07/29 02:13:54;;;;;;;0.60;0.60;;;;;;;25.25;56.32;97057.91;5074400;28;20258;-28
2023/07/29 02:16:22;;;;;;;0.70;0.70;;;;;;;25.24;56.25;97058.72;5073931;28;20261;-27
2023/07/29 02:18:49;;;;;;;0.60;0.60;;;;;;;25.25;56.64;97052.75;5074019;28;20222;-28
2023/07/29 02:21:18;;;;;;;0.60;0.60;;;;;;;25.24;56.58;97054.47;5073893;28;20204;-27
2023/07/29 02:23:45;;;;;;;0.60;0.60;;;;;;;25.25;56.38;97051.03;5074292;28;20200;-27
2023/07/29 02:26:12;;;;;;;0.53;0.53;;;;;;;25.22;56.50;97039.88;5074121;28;20619;-27
2023/07/29 02:32:25;;;;;;;0.60;0.60;;;;;;;25.26;56.34;97046.75;5071034;28;20215;-27
2023/07/29 02:34:52;;;;;;;0.60;0.60;;;;;;;25.24;56.29;97043.31;5074135;28;20204;-27
2023/07/29 02:37:19;;;;;;;0.60;0.60;;;;;;;25.25;56.69;97039.91;5074102;28;20254;-27
2023/07/29 02:39:45;;;;;;;0.67;0.67;;;;;;;25.25;56.44;97045.03;5069856;28;20441;-27
2023/07/29 02:42:12;;;;;;;0.70;0.70;;;;;;;25.24;56.65;97043.31;5072127;28;20234;-27
2023/07/29 02:44:39;;;;;;;0.67;0.67;;;;;;;25.24;56.76;97049.31;5072493;28;20200;-27
2023/07/29 02:47:06;;;;;;;0.60;0.60;;;;;;;25.23;56.65;97044.16;5073715;28;20239;-27
2023/07/29 02:49:32;;;;;;;0.60;0.60;;;;;;;25.24;56.69;97053.59;5073666;28;20208;-29
2023/07/29 02:51:59;;;;;;;0.60;0.60;;;;;;;25.24;56.36;97067.31;5073440;28;20216;-27
2023/07/29 02:54:26;;;;;;;0.60;0.60;;;;;;;25.23;56.80;97063.03;5073355;28;20262;-27
2023/07/29 02:56:52;;;;;;;0.60;0.60;;;;;;;25.24;56.25;97064.75;5073593;28;20200;-27
2023/07/29 02:59:19;;;;;;;0.63;0.63;;;;;;;25.13;56.55;97051.81;5073170;28;20228;-27
2023/07/29 03:01:46;;;;;;;0.70;0.70;;;;;;;25.24;56.32;97066.44;5073127;28;20200;-27
2023/07/29 03:04:13;;;;;;;0.70;0.70;;;;;;;25.20;56.49;97060.44;5073542;28;20572;-27
2023/07/29 03:06:39;;;;;;;0.60;0.60;;;;;;;25.24;56.36;97069.91;5073283;28;20204;-27
2023/07/29 03:09:06;;;;;;;0.60;0.60;;;;;;;25.24;56.73;97051.88;5073195;28;20227;-27
2023/07/29 03:11:33;;;;;;;0.60;0.60;;;;;;;25.24;56.28;97059.59;5073074;28;20224;-27
2023/07/29 03:14:00;;;;;;;0.50;0.50;;;;;;;25.24;56.53;97053.59;5073571;28;20204;-27
2023/07/29 03:16:27;;;;;;;0.60;0.60;;;;;;;25.26;56.71;97062.19;5073087;28;20265;-27
2023/07/29 03:18:54;;;;;;;0.70;0.70;;;;;;;25.24;56.58;97051.88;5072969;28;20217;-27
2023/07/29 03:21:20;;;;;;;0.50;0.50;;;;;;;25.25;56.70;97042.47;5073074;28;20262;-27
2023/07/29 03:23:47;;;;;;;0.70;0.70;;;;;;;25.24;56.61;97044.19;5072905;28;20257;-27
2023/07/29 03:26:13;;;;;;;0.70;0.70;;;;;;;25.25;56.36;97055.34;5072869;28;20242;-28
2023/07/29 03:28:41;;;;;;;0.70;0.70;;;;;;;25.22;56.34;97037.31;5072914;28;20227;-27
2023/07/29 03:31:08;;;;;;;0.70;0.70;;;;;;;25.26;56.57;97039.03;5073003;28;20274;-27
2023/07/29 03:33:34;;;;;;;0.60;0.60;;;;;;;25.26;56.27;97045.06;5072602;28;20220;-27
2023/07/29 03:36:01;;;;;;;0.63;0.63;;;;;;;25.24;56.64;97040.72;5073036;28;20232;-27
2023/07/29 03:38:28;;;;;;;0.60;0.60;;;;;;;25.26;56.45;97044.19;5072403;28;20277;-27
2023/07/29 03:40:54;;;;;;;0.60;0.60;;;;;;;25.25;56.64;97033.03;5072551;28;20200;-27
2023/07/29 03:43:21;;;;;;;0.70;0.70;;;;;;;25.24;56.73;97035.59;5072406;28;20204;-28
2023/07/29 03:45:48;;;;;;;0.60;0.60;;;;;;;25.23;56.74;97032.19;5072066;28;20232;-27
2023/07/29 03:48:14;;;;;;;0.60;0.60;;;;;;;25.25;56.71;97035.59;5072706;28;20310;-27
2023/07/29 03:50:41;;;;;;;0.70;0.70;;;;;;;25.25;56.73;97042.47;5072214;28;20236;-27
2023/07/29 03:53:09;;;;;;;0.80;0.80;;;;;;;25.25;56.48;97042.47;5072435;28;20269;-27
2023/07/29 03:55:36;;;;;;;0.70;0.70;;;;;;;25.25;56.33;97050.19;5072225;28;20261;-27
2023/07/29 03:58:03;;;;;;;0.70;0.70;;;;;;;25.24;56.35;97045.88;5072338;28;20232;-27
2023/07/29 04:00:29;;;;;;;0.70;0.70;;;;;;;25.23;56.73;97045.03;5070769;28;20220;-27
2023/07/29 04:02:56;;;;;;;0.70;0.70;;;;;;;25.24;56.37;97057.03;5072317;28;20196;-27
2023/07/29 04:05:22;;;;;;;0.70;0.70;;;;;;;25.25;56.56;97057.91;5072200;28;20204;-27
2023/07/29 04:07:49;;;;;;;0.70;0.70;;;;;;;25.23;56.36;97054.44;5070716;28;20256;-27
2023/07/29 04:10:15;;;;;;;0.60;0.60;;;;;;;25.24;56.73;97043.31;5070785;28;20215;-28
2023/07/29 04:12:43;;;;;;;0.60;0.60;;;;;;;25.23;56.38;97027.03;5071795;28;20631;-27
2023/07/29 04:15:09;;;;;;;0.60;0.60;;;;;;;25.23;56.78;97037.31;5067732;28;20291;-27
2023/07/29 04:17:36;;;;;;;0.60;0.60;;;;;;;25.25;56.55;97047.63;5072181;28;20266;-27
2023/07/29 04:20:03;;;;;;;0.70;0.70;;;;;;;25.23;56.70;97028.72;5071913;28;20200;-27
2023/07/29 04:22:30;;;;;;;0.70;0.70;;;;;;;25.24;56.66;97020.16;5071664;28;20204;-30
2023/07/29 04:24:57;;;;;;;0.67;0.67;;;;;;;25.24;56.45;97028.75;5071808;28;20208;-27
2023/07/29 04:27:23;;;;;;;0.60;0.60;;;;;;;25.22;56.56;97029.59;5072290;28;20635;-27
2023/07/29 04:29:50;;;;;;;0.60;0.60;;;;;;;25.24;56.46;97033.00;5071527;28;20254;-27
2023/07/29 04:32:17;;;;;;;0.57;0.57;;;;;;;25.24;56.64;97031.31;5071616;28;20220;-27
2023/07/29 04:34:43;;;;;;;0.60;0.60;;;;;;;25.25;56.32;97019.31;5071990;28;20212;-27
2023/07/29 04:37:10;;;;;;;0.60;0.60;;;;;;;25.23;56.48;97014.19;5071362;28;20235;-27
2023/07/29 04:39:36;;;;;;;0.67;0.67;;;;;;;25.24;56.75;97015.00;5071669;28;20231;-27
2023/07/29 04:42:03;;;;;;;0.60;0.60;;;;;;;25.24;56.59;97027.88;5071714;28;20591;-27
2023/07/29 04:44:30;;;;;;;0.60;0.60;;;;;;;25.24;56.37;97027.88;5071768;28;20208;-27
2023/07/29 04:46:56;;;;;;;0.70;0.70;;;;;;;25.24;56.74;97028.75;5071102;28;20659;-27
2023/07/29 04:49:23;;;;;;;0.60;0.60;;;;;;;25.23;56.75;97023.59;5070227;28;20228;-27
2023/07/29 04:51:49;;;;;;;0.60;0.60;;;;;;;25.24;56.50;97009.88;5071304;28;20658;-27
2023/07/29 04:54:16;;;;;;;0.70;0.70;;;;;;;25.23;56.62;97003.88;5071625;28;20619;-27
2023/07/29 04:56:43;;;;;;;0.70;0.70;;;;;;;25.23;56.33;96996.16;5071402;28;20277;-27
2023/07/29 04:59:09;;;;;;;0.60;0.60;;;;;;;25.25;56.63;97002.16;5093818;22;20223;-27
2023/07/29 05:01:36;;;;;;;0.60;0.60;;;;;;;25.24;56.34;97005.59;5090947;28;20666;-27
2023/07/29 05:04:02;;;;;;;0.80;0.80;;;;;;;25.22;56.63;97015.00;5090787;28;20227;-28
2023/07/29 05:06:29;;;;;;;0.60;0.60;;;;;;;25.24;56.70;97025.28;5091268;28;20208;-27
2023/07/29 05:08:59;;;;;;;0.60;0.60;;;;;;;25.24;56.35;97012.44;5088449;28;20224;-25
2023/07/29 05:11:26;;;;;;;0.60;0.60;;;;;;;25.24;56.32;96997.88;5068309;28;20450;-25
2023/07/29 05:13:52;;;;;;;0.70;0.70;;;;;;;25.23;56.46;96997.88;5076795;28;20641;-28
2023/07/29 05:16:19;;;;;;;0.70;0.70;;;;;;;25.25;56.36;97003.91;5073171;28;20295;-28
2023/07/29 05:18:46;;;;;;;0.70;0.70;;;;;;;25.24;56.48;97005.59;5079961;28;20228;-27
2023/07/29 05:21:14;;;;;;;0.60;0.60;;;;;;;25.24;56.32;96992.72;5082677;28;20208;-26
2023/07/29 05:23:40;;;;;;;0.60;0.60;;;;;;;25.23;56.77;96985.88;5079210;28;20212;-26
2023/07/29 05:26:07;;;;;;;0.60;0.60;;;;;;;25.25;56.76;96985.88;5079066;28;20670;-28
2023/07/29 05:28:33;;;;;;;2.10;0.70;;;;;;;25.25;56.33;96991.03;5071851;28;20224;-27
2023/07/29 05:31:01;;;;;;;0.60;0.60;;;;;;;25.25;56.58;97003.91;5085791;28;20674;-28
2023/07/29 05:33:28;;;;;;;0.60;0.60;;;;;;;25.21;56.53;97005.56;5069139;28;20782;-27
2023/07/29 05:35:55;;;;;;;0.70;0.70;;;;;;;25.24;56.59;97007.28;5069948;28;20205;-27
2023/07/29 05:38:21;;;;;;;0.60;0.60;;;;;;;25.25;56.36;97009.03;5069372;28;20217;-28
2023/07/29 05:40:48;;;;;;;0.70;0.70;;;;;;;25.24;56.63;97015.00;5084983;28;20253;-28
2023/07/29 05:43:15;;;;;;;0.97;0.67;;;;;;;25.24;56.61;97018.47;5070147;28;20227;-28
2023/07/29 05:45:42;;;;;;;1.50;0.70;;;;;;;25.25;56.45;97027.03;5081034;28;20291;-26
2023/07/29 05:48:08;;;;;;;0.73;0.73;;;;;;;25.24;56.31;97020.16;5078362;28;20658;-28
2023/07/29 05:50:35;;;;;;;0.70;0.70;;;;;;;25.24;56.80;97009.88;5079640;28;20208;-28
2023/07/29 05:53:01;;;;;;;0.60;0.60;;;;;;;25.23;56.73;97016.75;5076293;28;20419;-28
2023/07/29 05:55:28;;;;;;;0.70;0.70;;;;;;;25.23;56.70;97003.88;5080687;28;20237;-27
2023/07/29 05:57:54;;;;;;;0.70;0.70;;;;;;;25.22;56.25;97015.00;5078004;28;20204;-28
2023/07/29 06:00:21;;;;;;;0.70;0.70;;;;;;;25.22;56.33;97015.00;5077475;28;20207;-27
2023/07/29 06:02:48;;;;;;;0.60;0.60;;;;;;;25.22;56.55;97015.00;5070748;28;20227;-28
2023/07/29 06:05:14;;;;;;;0.70;0.70;;;;;;;25.23;56.67;97014.19;5082555;28;20235;-26
2023/07/29 06:07:44;;;;;;;0.60;0.60;;;;;;;25.22;56.62;97007.28;5078066;28;20582;-27
2023/07/29 06:10:18;;;;;;;0.70;0.70;;;;;;;25.24;56.79;97015.00;5086670;28;20215;-27
2023/07/29 06:12:45;;;;;;;0.63;0.63;;;;;;;25.24;56.40;97025.28;5076755;28;20217;-27
2023/07/29 06:15:12;;;;;;;0.60;0.60;;;;;;;25.23;56.82;97029.59;5082047;28;20211;-27
2023/07/29 06:17:39;;;;;;;0.60;0.60;;;;;;;25.22;56.54;97039.88;5077881;28;20208;-27
2023/07/29 06:20:06;;;;;;;0.70;0.70;;;;;;;25.24;56.74;97038.16;5086403;28;20623;-27
2023/07/29 06:22:33;;;;;;;0.60;0.60;;;;;;;25.24;56.72;97041.59;5082880;28;20226;-28
2023/07/29 06:24:59;;;;;;;0.60;0.60;;;;;;;25.24;56.25;97044.19;5081162;28;20266;-28
2023/07/29 06:27:26;;;;;;;0.80;0.80;;;;;;;25.25;56.44;97047.63;5079912;28;20227;-27
2023/07/29 06:29:53;;;;;;;0.63;0.63;;;;;;;25.24;56.37;97049.31;5077995;28;20251;-27
2023/07/29 06:32:19;;;;;;;0.70;0.70;;;;;;;25.24;56.54;97057.03;5083514;28;20207;-26
2023/07/29 06:34:46;;;;;;;0.70;0.70;;;;;;;25.24;56.35;97048.44;5074826;28;20258;-27
2023/07/29 06:37:12;;;;;;;0.70;0.70;;;;;;;25.24;56.56;97026.16;5078243;28;20627;-27
2023/07/29 06:39:39;;;;;;;0.70;0.70;;;;;;;25.23;56.71;97019.31;5075067;28;20608;-28
2023/07/29 06:42:06;;;;;;;0.60;0.60;;;;;;;25.23;56.35;97027.03;5081621;28;20200;-26
2023/07/29 06:44:32;;;;;;;0.60;0.60;;;;;;;25.23;56.53;97024.47;5079864;28;20204;-27
2023/07/29 06:46:59;;;;;;;0.67;0.67;;;;;;;25.24;56.63;97022.72;5073354;28;20211;-28
2023/07/29 06:49:25;;;;;;;0.70;0.70;;;;;;;25.24;56.55;97015.88;5080388;28;20642;-28
2023/07/29 06:51:52;;;;;;;0.60;0.60;;;;;;;25.23;56.42;97016.75;5086286;28;20200;-28
2023/07/29 06:54:19;;;;;;;0.70;0.70;;;;;;;25.24;56.32;97017.59;5081273;28;20217;-26
2023/07/29 06:56:45;;;;;;;0.63;0.63;;;;;;;25.23;56.80;97013.31;5086988;28;20204;-25
2023/07/29 06:59:12;;;;;;;0.60;0.60;;;;;;;25.23;56.70;97015.88;5073509;28;20228;-28
2023/07/29 07:01:38;;;;;;;0.60;0.60;;;;;;;25.23;56.39;97015.88;5080615;28;20299;-27
2023/07/29 07:04:05;;;;;;;0.70;0.70;;;;;;;25.23;56.43;97018.44;5074549;28;20287;-28
2023/07/29 07:06:31;;;;;;;0.70;0.70;;;;;;;25.23;56.50;97032.19;5073014;28;20775;-27
2023/07/29 07:08:58;;;;;;;0.70;0.70;;;;;;;25.23;56.42;97032.19;5085743;28;20243;-27
2023/07/29 07:11:24;;;;;;;0.70;0.70;;;;;;;25.23;56.74;97028.72;5079975;28;20199;-27
2023/07/29 07:13:51;;;;;;;0.63;0.63;;;;;;;25.23;56.29;97034.75;5075929;28;20224;-28
2023/07/29 07:16:18;;;;;;;0.60;0.60;;;;;;;25.23;56.77;97042.47;5085643;28;20207;-28
2023/07/29 07:18:44;;;;;;;0.60;0.60;;;;;;;25.23;56.27;97041.59;5082219;28;20735;-27
2023/07/29 07:21:11;;;;;;;0.60;0.60;;;;;;;25.24;56.45;97056.16;5079676;28;20290;-28
2023/07/29 07:23:38;;;;;;;0.70;0.70;;;;;;;25.23;56.38;97062.16;5086570;28;20261;-27
2023/07/29 07:26:05;;;;;;;0.70;0.70;;;;;;;25.23;56.80;97062.16;5077768;28;20211;-28
2023/07/29 07:28:32;;;;;;;0.70;0.70;;;;;;;25.22;56.78;97069.00;5078799;28;20230;-26
2023/07/29 07:30:59;;;;;;;0.63;0.63;;;;;;;25.23;56.35;97055.31;5083150;28;20290;-28
2023/07/29 07:33:25;;;;;;;0.63;0.63;;;;;;;25.23;56.32;97039.03;5077047;28;20307;-27
2023/07/29 07:35:52;;;;;;;0.70;0.70;;;;;;;25.23;56.34;97039.03;5075957;28;20204;-28
2023/07/29 07:38:18;;;;;;;0.70;0.70;;;;;;;25.23;56.50;97044.16;5082218;28;20219;-27
2023/07/29 07:40:54;;;;;;;0.67;0.67;;;;;;;25.22;56.39;97043.28;5072808;28;20666;-27
2023/07/29 07:43:21;;;;;;;0.60;0.60;;;;;;;25.22;56.43;97056.16;5081144;28;20272;-26
2023/07/29 07:45:47;;;;;;;0.60;0.60;;;;;;;25.23;56.82;97081.03;5081878;28;20211;-28
2023/07/29 07:48:16;;;;;;;0.60;0.60;;;;;;;25.22;56.75;97110.16;5080735;28;20586;-28
2023/07/29 07:50:43;;;;;;;0.70;0.70;;;;;;;25.23;56.28;97118.75;5081233;28;20277;-28
2023/07/29 07:53:10;;;;;;;0.57;0.57;;;;;;;25.24;56.34;97113.63;5075544;28;20281;-28
2023/07/29 07:55:36;;;;;;;0.60;0.60;;;;;;;25.23;56.65;97100.75;5084836;28;20629;-28
2023/07/29 07:58:03;;;;;;;0.60;0.60;;;;;;;25.24;56.58;97095.63;5075334;28;20200;-27
2023/07/29 08:00:29;;;;;;;0.53;0.53;;;;;;;25.23;56.64;97085.31;5082891;28;20211;-27
2023/07/29 08:02:56;;;;;;;0.70;0.70;;;;;;;25.23;56.71;97059.59;5080678;28;20200;-27
2023/07/29 08:05:22;;;;;;;0.60;0.60;;;;;;;25.23;56.56;97034.75;5071766;28;20204;-28
2023/07/29 08:07:49;;;;;;;0.70;0.70;;;;;;;25.23;56.23;97027.03;5075985;28;20201;-27
2023/07/29 08:10:16;;;;;;;0.60;0.60;;;;;;;25.23;56.56;97027.03;5074470;28;20337;-26
2023/07/29 08:12:42;;;;;;;0.60;0.60;;;;;;;25.24;56.27;97025.28;5075014;28;20197;-28
2023/07/29 08:15:09;;;;;;;0.60;0.60;;;;;;;25.23;56.30;97021.88;5080317;28;20196;-28
2023/07/29 08:17:35;;;;;;;0.60;0.60;;;;;;;25.23;56.63;97027.03;5071926;28;20250;-28
2023/07/29 08:20:02;;;;;;;0.70;0.70;;;;;;;25.23;56.27;97027.03;5075130;28;20306;-27
2023/07/29 08:22:29;;;;;;;0.60;0.60;;;;;;;25.21;56.43;97030.41;5087063;28;20745;-28
2023/07/29 08:24:56;;;;;;;0.60;0.60;;;;;;;25.23;56.48;97032.19;5074884;28;20205;-27
2023/07/29 08:27:22;;;;;;;0.67;0.67;;;;;;;25.24;56.85;97025.28;5084196;28;20199;-27
2023/07/29 08:29:49;;;;;;;0.70;0.70;;;;;;;25.24;56.33;97027.88;5086408;28;20227;-27
2023/07/29 08:32:15;;;;;;;0.70;0.70;;;;;;;25.23;56.41;97042.47;5082788;28;20284;-27
2023/07/29 08:34:42;;;;;;;0.60;0.60;;;;;;;25.25;56.66;97045.03;5083925;28;20319;-27
2023/07/29 08:37:08;;;;;;;0.70;0.70;;;;;;;25.23;56.48;97042.47;5075662;28;20258;-28
2023/07/29 08:39:35;;;;;;;0.60;0.60;;;;;;;25.23;56.71;97036.44;5083053;28;20220;-26
2023/07/29 08:42:07;;;;;;;0.70;0.70;;;;;;;25.20;56.35;97033.84;5075081;28;20200;-28
2023/07/29 08:44:43;;;;;;;0.53;0.53;;;;;;;25.23;56.53;97039.88;5077027;28;20269;-28
2023/07/29 08:47:10;;;;;;;0.70;0.70;;;;;;;25.23;56.27;97042.47;5083084;28;20207;-26
2023/07/29 08:49:37;;;;;;;0.70;0.70;;;;;;;25.23;56.64;97039.88;5077798;28;20224;-27
2023/07/29 08:52:04;;;;;;;0.60;0.60;;;;;;;25.24;56.46;97046.75;5071363;28;20208;-27
2023/07/29 08:54:31;;;;;;;0.63;0.63;;;;;;;25.20;56.19;97039.00;5081948;28;20243;-26
2023/07/29 08:56:57;;;;;;;0.60;0.60;;;;;;;25.23;56.74;97028.72;5074598;28;20674;-25
2023/07/29 08:59:24;;;;;;;0.60;0.60;;;;;;;25.17;56.45;97025.25;5070417;28;20231;-27
2023/07/29 09:01:52;;;;;;;0.70;0.70;;;;;;;25.23;56.77;97029.59;5056783;28;20670;-27
2023/07/29 09:04:19;;;;;;;0.50;0.50;;;;;;;25.22;56.25;97033.00;5071600;28;20311;-27
2023/07/29 09:06:45;;;;;;;0.60;0.60;;;;;;;25.17;56.68;97022.69;5083103;28;20577;-28
2023/07/29 09:09:12;;;;;;;0.60;0.60;;;;;;;25.24;56.34;97027.88;5050365;28;20259;-26
2023/07/29 09:11:39;;;;;;;0.60;0.60;;;;;;;25.23;56.80;97023.59;5065101;28;20204;-27
2023/07/29 09:14:05;;;;;;;0.70;0.70;;;;;;;25.23;56.55;97015.88;5082519;28;20770;-27
2023/07/29 09:16:33;;;;;;;0.60;0.60;;;;;;;25.23;56.50;97008.16;5082502;28;20238;-27
2023/07/29 09:19:05;;;;;;;0.60;0.60;;;;;;;25.23;56.66;97021.00;5073277;28;20228;-24
2023/07/29 09:21:32;;;;;;;0.60;0.60;;;;;;;25.22;56.70;97012.44;5074993;28;20199;-28
2023/07/29 09:24:02;;;;;;;0.60;0.60;;;;;;;25.22;56.32;97022.72;5081437;28;20204;-28
2023/07/29 09:26:29;;;;;;;0.63;0.63;;;;;;;25.23;56.54;97039.88;5081133;28;20250;-26
2023/07/29 09:28:56;;;;;;;0.60;0.60;;;;;;;25.23;56.58;97064.75;5084540;28;20228;-27
2023/07/29 09:31:23;;;;;;;0.53;0.53;;;;;;;25.23;56.77;97050.19;5074211;28;20693;-28
2023/07/29 09:33:55;;;;;;;0.60;0.60;;;;;;;25.24;56.37;97087.03;5078063;28;20310;-28
2023/07/29 09:36:22;;;;;;;0.60;0.60;;;;;;;25.23;56.49;97047.59;5069763;28;20238;-27
2023/07/29 09:38:52;;;;;;;0.60;0.60;;;;;;;25.22;56.43;97066.44;5070277;28;20215;-28
2023/07/29 09:41:19;;;;;;;0.60;0.60;;;;;;;25.21;56.59;97064.72;5073684;28;20200;-27
2023/07/29 09:43:45;;;;;;;0.63;0.63;;;;;;;25.20;56.74;97049.28;5067918;28;20227;-28
2023/07/29 09:46:12;;;;;;;0.60;0.60;;;;;;;25.22;56.74;97047.59;5078432;28;20262;-27
2023/07/29 09:48:39;;;;;;;0.60;0.60;;;;;;;25.20;56.43;97045.00;5086544;28;20219;-26
2023/07/29 09:51:12;;;;;;;0.70;0.70;;;;;;;25.17;56.30;97040.69;5080260;28;20236;-27
2023/07/29 09:53:46;;;;;;;0.60;0.60;;;;;;;25.21;56.37;97046.72;5089288;28;20678;-27
2023/07/29 09:56:13;;;;;;;0.60;0.60;;;;;;;25.21;56.56;97048.44;5082762;28;20685;-28
2023/07/29 09:58:40;;;;;;;0.60;0.60;;;;;;;25.21;56.37;97053.56;5071697;28;20249;-28
2023/07/29 10:01:06;;;;;;;0.60;0.60;;;;;;;25.21;56.80;97051.88;5074958;28;20201;-27
2023/07/29 10:03:34;;;;;;;0.70;0.70;;;;;;;25.21;56.37;97051.88;5074910;28;20204;-27
2023/07/29 10:06:04;;;;;;;0.60;0.60;;;;;;;25.22;56.54;97050.16;5082833;28;20232;-28
2023/07/29 10:08:31;;;;;;;0.70;0.70;;;;;;;25.21;56.54;97040.72;5065450;28;20246;-26
2023/07/29 10:10:59;;;;;;;0.70;0.70;;;;;;;25.22;56.31;97037.31;5082989;28;20196;-28
2023/07/29 10:13:26;;;;;;;0.80;0.80;;;;;;;25.21;56.76;97030.41;5073733;28;20239;-27
2023/07/29 10:15:58;;;;;;;0.70;0.70;;;;;;;25.21;56.50;97033.00;5085212;28;20673;-27
2023/07/29 10:18:25;;;;;;;0.70;0.70;;;;;;;25.21;56.50;97023.56;5080397;28;20271;-28
2023/07/29 10:20:51;;;;;;;0.70;0.70;;;;;;;25.18;56.77;97008.13;5058456;28;20209;-26
2023/07/29 10:23:18;;;;;;;0.60;0.60;;;;;;;25.20;56.60;97008.13;5079586;28;20204;-28
2023/07/29 10:26:05;;;;;;;0.70;0.70;;;;;;;25.20;56.60;97021.88;5081106;28;20290;-27
2023/07/29 10:28:32;;;;;;;0.70;0.70;;;;;;;25.20;56.62;97021.00;5070589;28;20224;-27
2023/07/29 10:30:59;;;;;;;0.70;0.70;;;;;;;25.20;56.50;97021.00;5082611;28;20200;-27
2023/07/29 10:33:26;;;;;;;0.60;0.60;;;;;;;25.21;56.42;97021.00;5076689;28;20203;-27
2023/07/29 10:35:53;;;;;;;0.60;0.60;;;;;;;25.20;56.30;97021.88;5082836;28;20285;-28
2023/07/29 10:38:21;;;;;;;0.67;0.67;;;;;;;25.19;56.52;97017.56;5073771;28;20220;-27
2023/07/29 10:40:57;;;;;;;0.67;0.67;;;;;;;25.22;56.84;97019.31;5083937;28;20208;-27
2023/07/29 10:43:35;;;;;;;0.70;0.70;;;;;;;25.21;56.53;97023.56;5079154;28;20211;-26
2023/07/29 10:46:21;;;;;;;0.67;0.67;;;;;;;25.22;56.58;97019.31;5077103;28;20203;-27
2023/07/29 10:48:51;;;;;;;0.60;0.60;;;;;;;25.21;56.72;97010.72;5073244;28;20764;-28
2023/07/29 10:51:34;;;;;;;0.70;0.70;;;;;;;25.22;56.46;97011.59;5075570;28;20208;-27
2023/07/29 10:54:09;;;;;;;0.60;0.60;;;;;;;25.21;56.57;97010.72;5078679;28;20233;-27
2023/07/29 10:56:37;;;;;;;0.50;0.50;;;;;;;25.19;56.77;97003.84;5066438;28;20200;-27
2023/07/29 10:59:19;;;;;;;0.67;0.67;;;;;;;25.21;56.51;97009.84;5094429;22;20597;-27
2023/07/29 11:01:59;;;;;;;0.70;0.70;;;;;;;25.21;56.54;97018.44;5047134;28;20205;-27
2023/07/29 11:04:30;;;;;;;0.70;0.70;;;;;;;25.22;56.44;97020.16;5052935;28;20246;-30
2023/07/29 11:07:03;;;;;;;0.60;0.60;;;;;;;25.22;56.72;96996.16;5053856;28;20212;-27
2023/07/29 11:09:48;;;;;;;0.70;0.70;;;;;;;25.22;56.80;97001.31;5053317;28;20235;-28
2023/07/29 11:12:36;;;;;;;0.50;0.50;;;;;;;25.21;56.65;96985.00;5053220;28;20201;-27
2023/07/29 11:15:03;;;;;;;0.60;0.60;;;;;;;25.21;56.49;96997.00;5048933;28;20263;-27
2023/07/29 11:17:36;;;;;;;0.70;0.70;;;;;;;25.21;56.51;97000.44;5053026;28;20263;-27
2023/07/29 11:20:03;;;;;;;0.60;0.60;;;;;;;25.21;56.35;96997.00;5048703;28;20251;-27
2023/07/29 11:22:30;;;;;;;0.60;0.60;;;;;;;25.20;56.75;96993.56;5050664;28;20302;-27
2023/07/29 11:25:00;;;;;;;0.70;0.70;;;;;;;25.19;56.29;96994.41;5053521;28;20671;-27
2023/07/29 11:27:26;;;;;;;0.60;0.60;;;;;;;25.20;56.74;96995.28;5053112;28;20220;-32
2023/07/29 11:30:00;;;;;;;0.70;0.70;;;;;;;25.21;56.72;96997.84;5053197;28;20225;-27
2023/07/29 11:32:26;;;;;;;0.60;0.60;;;;;;;25.20;56.27;96996.16;5052775;28;20209;-27
2023/07/29 11:34:53;;;;;;;0.70;0.70;;;;;;;25.22;56.71;96996.16;5051617;28;20233;-28
2023/07/29 11:37:22;;;;;;;0.70;0.70;;;;;;;25.19;56.65;96980.72;5052977;28;20208;-27
2023/07/29 11:39:49;;;;;;;0.60;0.60;;;;;;;25.22;56.38;96996.16;5053056;28;20311;-27
2023/07/29 11:42:15;;;;;;;0.70;0.70;;;;;;;25.17;56.43;96978.97;5052476;28;20262;-27